aviador You're here:

KOVS Decoded Metar

BOSCOBEL in WI, USA
Report Time2017-06-29 11:53:00
UTC Time2017-06-29 12:25:05
Flight Rules mvfr MVFR
Wind230° at 04 kt
W.Decomp.*RWY 25: 3.8 kt HW 1.3 kt LCW
RWY 20: 3.4 kt HW 2.1 kt RCW
W.Rank230° ranks 4
Current wind is below 230° avg. (6.4)
Visibility9999 m
Phenomena:N/A
Clouds:Overcast 011 Hf
Expected CloudBase > 400 ft AGL from Temp-Dew spread
Ceiling1,100 ft
Temp20°C (ISA +6)
Dew Point19°C (94% RH)
QNH1007 hPa
Density Alt1,900 ft
Elevation663 ft
Report Wrong Elevation
Raw Report
KOVS 291153Z AUTO 23004KT 10SM OVC011 20/19 A2974 RMK AO2 SLP067
70195 T02000189 10200 20183 53019=

Extra information for KOVS:More info

Metar Taf Metar & Taf Last 4 Metars F.Rules Stats Wind Profile Meteogram Temp Stats Airport Information Weather charts Add Link Nearby VenuesMetar ALERT Operation Metar Decoded Social comments

AIRNAV info for KOVS